Time;durP1;ratioP1;P1;durP2;ratioP2;P2;SDS_P1;SDS_P2;PMS_P1;PMS_P2;Temp;Humidity;BMP_temperature;BMP_pressure;BME280_temperature;BME280_humidity;BME280_pressure;Samples;Min_cycle;Max_cycle;Signal;HPM_P1;HPM_P2
2021/08/02 00:01:02;;;;;;;2.72;0.60;;;13.90;99.90;;;;;;5087641;28;20036;-73
2021/08/02 00:03:51;;;;;;;2.08;0.80;;;13.90;99.90;;;;;;5105044;28;20027;-73
2021/08/02 00:06:27;;;;;;;3.70;0.95;;;13.90;99.90;;;;;;5104679;28;20031;-77
2021/08/02 00:09:04;;;;;;;3.25;1.20;;;13.90;99.90;;;;;;5071146;28;20074;-77
2021/08/02 00:11:39;;;;;;;5.00;1.02;;;13.90;99.90;;;;;;5052586;28;20039;-77
2021/08/02 00:14:08;;;;;;;2.50;0.60;;;13.90;99.90;;;;;;5069599;28;20058;-77
2021/08/02 00:16:36;;;;;;;2.97;0.80;;;13.90;99.90;;;;;;5104743;28;20036;-77
2021/08/02 00:19:05;;;;;;;3.85;1.33;;;13.90;99.90;;;;;;5087524;28;20043;-77
2021/08/02 00:21:31;;;;;;;2.83;1.00;;;13.90;99.90;;;;;;5105372;28;20035;-77
2021/08/02 00:23:58;;;;;;;4.07;0.95;;;13.90;99.90;;;;;;5087359;28;20052;-77
2021/08/02 00:26:25;;;;;;;5.50;1.17;;;13.90;99.90;;;;;;5070273;28;20059;-77
2021/08/02 00:28:52;;;;;;;3.78;0.60;;;13.80;99.90;;;;;;5087346;28;20036;-77
2021/08/02 00:31:20;;;;;;;2.05;0.60;;;13.80;99.90;;;;;;5052378;28;20043;-77
2021/08/02 00:33:47;;;;;;;3.55;0.77;;;13.80;99.90;;;;;;5087522;28;20040;-77
2021/08/02 00:36:39;;;;;;;4.07;0.60;;;13.80;99.90;;;;;;5069746;28;20043;-77
2021/08/02 00:39:21;;;;;;;2.58;0.68;;;13.80;99.90;;;;;;5075224;28;20046;-77
2021/08/02 00:42:37;;;;;;;1.95;0.60;;;13.90;99.90;;;;;;5085780;28;20538;-77
2021/08/02 00:45:15;;;;;;;3.50;0.70;;;13.80;99.90;;;;;;5039389;28;20395;-73
2021/08/02 00:47:58;;;;;;;3.67;0.80;;;13.90;99.90;;;;;;5087050;28;20042;-73
2021/08/02 00:50:29;;;;;;;4.10;0.70;;;13.90;99.90;;;;;;5084597;28;20586;-73
2021/08/02 00:53:01;;;;;;;2.65;0.65;;;13.90;99.90;;;;;;5087173;28;20058;-73
2021/08/02 00:55:30;;;;;;;4.25;0.70;;;14.00;99.90;;;;;;5085042;28;20039;-73
2021/08/02 00:58:00;;;;;;;5.03;0.98;;;13.90;99.90;;;;;;5102512;28;20043;-73
2021/08/02 01:00:27;;;;;;;5.82;0.73;;;14.00;99.90;;;;;;5070266;28;20036;-73
2021/08/02 01:02:56;;;;;;;2.90;0.70;;;14.00;99.90;;;;;;5104743;28;20027;-73
2021/08/02 01:05:23;;;;;;;2.53;0.50;;;14.00;99.90;;;;;;5103527;28;20043;-73
2021/08/02 01:07:57;;;;;;;1.88;0.80;;;14.00;99.90;;;;;;5052301;28;20051;-73
2021/08/02 01:10:30;;;;;;;3.72;0.60;;;14.00;99.90;;;;;;5083435;28;20039;-73
2021/08/02 01:13:05;;;;;;;2.75;0.60;;;14.10;99.90;;;;;;5066482;28;20027;-73
2021/08/02 01:15:34;;;;;;;6.50;0.98;;;14.10;99.90;;;;;;5086192;28;20034;-77
2021/08/02 01:18:02;;;;;;;3.03;0.70;;;14.00;99.90;;;;;;5104470;28;20055;-77
2021/08/02 01:20:33;;;;;;;2.40;0.70;;;14.00;99.90;;;;;;5085159;28;20043;-73
2021/08/02 01:23:04;;;;;;;2.10;0.60;;;14.00;99.90;;;;;;5085598;28;20038;-73
2021/08/02 01:25:34;;;;;;;7.13;1.23;;;14.00;99.90;;;;;;5068077;28;20046;-73
2021/08/02 01:28:20;;;;;;;1.60;0.63;;;14.00;99.90;;;;;;5103788;28;20798;-73
2021/08/02 01:30:55;;;;;;;3.28;0.90;;;13.90;99.90;;;;;;5066740;28;20051;-73
2021/08/02 01:33:29;;;;;;;4.00;0.95;;;13.90;99.90;;;;;;5083315;28;20047;-74
2021/08/02 01:36:04;;;;;;;3.97;0.70;;;13.90;99.90;;;;;;5084470;28;20047;-73
2021/08/02 01:38:32;;;;;;;4.57;0.75;;;13.90;99.90;;;;;;5084408;28;20043;-74
2021/08/02 01:41:03;;;;;;;3.53;0.70;;;14.00;99.90;;;;;;5083247;28;20040;-73
2021/08/02 01:43:32;;;;;;;2.97;0.80;;;14.00;99.90;;;;;;5085952;28;20043;-73
2021/08/02 01:46:20;;;;;;;4.43;0.80;;;14.00;99.90;;;;;;5069019;28;20402;-73
2021/08/02 01:49:01;;;;;;;3.10;0.77;;;14.10;99.90;;;;;;5085797;28;20042;-73
2021/08/02 01:51:45;;;;;;;3.17;0.60;;;14.10;99.90;;;;;;5082938;28;20039;-73
2021/08/02 01:54:44;;;;;;;3.35;0.75;;;14.10;99.90;;;;;;5104783;28;20038;-74
2021/08/02 01:57:20;;;;;;;3.17;0.93;;;14.10;99.90;;;;;;5103577;28;20032;-73
2021/08/02 02:00:04;;;;;;;1.75;0.65;;;14.10;99.90;;;;;;5103921;28;20035;-73
2021/08/02 02:03:06;;;;;;;4.57;0.63;;;14.10;99.90;;;;;;5085849;28;20386;-73
2021/08/02 02:05:53;;;;;;;4.63;0.85;;;14.20;99.90;;;;;;5084241;28;20032;-73
2021/08/02 02:08:25;;;;;;;4.28;0.75;;;14.20;99.90;;;;;;5085135;28;20509;-73
2021/08/02 02:10:58;;;;;;;2.17;0.65;;;14.20;99.90;;;;;;5083410;28;20054;-73
2021/08/02 02:13:43;;;;;;;1.63;0.60;;;14.20;99.90;;;;;;5086029;28;20032;-73
2021/08/02 02:16:13;;;;;;;2.53;0.98;;;14.20;99.90;;;;;;5086703;28;20035;-74
2021/08/02 02:18:49;;;;;;;2.60;0.50;;;14.20;99.90;;;;;;5067743;28;20486;-73
2021/08/02 02:21:19;;;;;;;3.22;0.52;;;14.20;99.90;;;;;;5102203;28;20032;-73
2021/08/02 02:23:48;;;;;;;4.32;0.75;;;14.20;99.90;;;;;;5088191;28;20072;-73
2021/08/02 02:26:17;;;;;;;2.72;0.60;;;14.10;99.90;;;;;;5068129;28;20035;-73
2021/08/02 02:28:45;;;;;;;3.80;0.70;;;14.20;99.90;;;;;;5068526;28;20501;-77
2021/08/02 02:31:15;;;;;;;2.25;0.60;;;14.20;99.90;;;;;;5087282;28;20477;-77
2021/08/02 02:33:45;;;;;;;2.33;0.80;;;14.20;99.90;;;;;;5085550;28;20035;-73
2021/08/02 02:36:15;;;;;;;2.63;0.90;;;14.20;99.90;;;;;;5090575;28;20035;-77
2021/08/02 02:38:44;;;;;;;3.80;0.80;;;14.10;99.90;;;;;;5104951;28;20028;-74
2021/08/02 02:41:10;;;;;;;8.15;0.80;;;14.20;99.90;;;;;;5088047;28;20035;-73
2021/08/02 02:43:44;;;;;;;4.38;1.00;;;14.20;99.90;;;;;;5073250;28;20509;-73
2021/08/02 02:46:13;;;;;;;2.75;0.80;;;14.10;99.90;;;;;;5088672;28;20027;-73
2021/08/02 02:48:40;;;;;;;3.47;0.98;;;14.20;99.90;;;;;;5088779;28;20040;-73
2021/08/02 02:51:09;;;;;;;2.33;0.77;;;14.10;99.90;;;;;;5070154;28;20055;-73
2021/08/02 02:53:36;;;;;;;3.45;0.70;;;14.20;99.90;;;;;;5088090;28;20035;-73
2021/08/02 02:56:08;;;;;;;1.58;0.80;;;14.10;99.90;;;;;;5106767;28;20047;-73
2021/08/02 02:58:36;;;;;;;3.03;0.80;;;14.10;99.90;;;;;;5054964;28;20054;-73
2021/08/02 03:01:05;;;;;;;2.00;0.70;;;14.10;99.90;;;;;;5069135;28;20381;-73
2021/08/02 03:03:35;;;;;;;2.58;0.65;;;14.20;99.90;;;;;;5073378;28;20038;-73
2021/08/02 03:06:06;;;;;;;3.47;0.70;;;14.20;99.90;;;;;;5087971;28;20019;-73
2021/08/02 03:08:35;;;;;;;1.83;0.63;;;14.10;99.90;;;;;;5088234;28;20094;-73
2021/08/02 03:11:05;;;;;;;3.25;1.02;;;14.10;99.90;;;;;;5088066;27;20070;-74
2021/08/02 03:13:31;;;;;;;1.42;0.60;;;14.10;99.90;;;;;;5090472;28;20739;-74
2021/08/02 03:15:58;;;;;;;3.28;0.70;;;14.10;99.90;;;;;;5070799;28;20027;-73
2021/08/02 03:18:24;;;;;;;4.22;0.80;;;14.10;99.90;;;;;;5071716;28;20040;-73
2021/08/02 03:20:51;;;;;;;7.93;0.80;;;14.10;99.90;;;;;;5069350;28;20929;-73
2021/08/02 03:23:28;;;;;;;5.07;0.60;;;14.10;99.90;;;;;;5089571;28;20043;-74
2021/08/02 03:26:00;;;;;;;4.22;0.63;;;14.10;99.90;;;;;;5103802;28;20031;-73
2021/08/02 03:28:43;;;;;;;1.45;0.57;;;14.10;99.90;;;;;;5104546;28;20040;-73
2021/08/02 03:31:12;;;;;;;3.00;0.75;;;14.20;99.90;;;;;;5104133;28;20366;-73
2021/08/02 03:33:41;;;;;;;1.88;0.50;;;14.10;99.90;;;;;;5087897;28;20031;-73
2021/08/02 03:36:18;;;;;;;1.70;0.50;;;14.20;99.90;;;;;;5070016;28;20038;-73
2021/08/02 03:38:49;;;;;;;2.80;0.50;;;14.20;99.90;;;;;;5106284;28;20039;-73
2021/08/02 03:41:17;;;;;;;2.83;0.47;;;14.20;99.90;;;;;;5104948;28;20394;-73
2021/08/02 03:43:44;;;;;;;3.83;0.60;;;14.20;99.90;;;;;;5087417;28;20870;-73
2021/08/02 03:46:12;;;;;;;4.55;0.80;;;14.20;99.90;;;;;;5087140;28;21504;-73
2021/08/02 03:48:39;;;;;;;1.60;0.50;;;14.20;99.90;;;;;;5087450;28;20057;-73
2021/08/02 03:51:06;;;;;;;2.30;0.60;;;14.20;99.90;;;;;;5053522;28;20044;-73
2021/08/02 03:53:44;;;;;;;2.92;0.68;;;14.20;99.90;;;;;;5084201;28;20811;-73
2021/08/02 03:56:14;;;;;;;2.50;0.63;;;14.30;99.90;;;;;;5082457;28;20036;-73
2021/08/02 03:58:40;;;;;;;3.70;0.63;;;14.30;99.90;;;;;;5082988;28;20040;-73
2021/08/02 04:01:08;;;;;;;3.47;0.60;;;14.30;99.90;;;;;;5065772;28;20039;-74
2021/08/02 04:03:35;;;;;;;2.28;0.50;;;14.30;99.90;;;;;;5086243;28;20048;-73
2021/08/02 04:06:02;;;;;;;3.20;0.60;;;14.30;99.90;;;;;;5085005;28;20039;-73
2021/08/02 04:08:28;;;;;;;5.55;0.70;;;14.20;99.90;;;;;;5085434;28;20059;-73
2021/08/02 04:10:55;;;;;;;1.77;0.50;;;14.30;99.90;;;;;;5049184;28;20044;-76
2021/08/02 04:13:22;;;;;;;3.42;0.50;;;14.20;99.90;;;;;;5082202;28;20036;-76
2021/08/02 04:15:48;;;;;;;1.38;0.40;;;14.20;99.90;;;;;;5082623;28;20032;-76
2021/08/02 04:18:15;;;;;;;4.13;0.75;;;14.20;99.90;;;;;;5083805;28;20043;-76
2021/08/02 04:20:43;;;;;;;1.85;0.60;;;14.20;99.90;;;;;;5048001;28;20055;-76
2021/08/02 04:23:11;;;;;;;2.50;0.60;;;14.20;99.90;;;;;;5084157;28;20043;-76
2021/08/02 04:25:37;;;;;;;3.47;0.77;;;14.30;99.90;;;;;;5084696;28;20035;-76
2021/08/02 04:28:04;;;;;;;3.20;0.65;;;14.20;99.90;;;;;;5049605;28;20047;-76
2021/08/02 04:30:30;;;;;;;3.10;0.52;;;14.20;99.90;;;;;;5083486;28;21142;-76
2021/08/02 04:32:57;;;;;;;3.33;0.50;;;14.20;99.90;;;;;;5066193;28;20372;-79
2021/08/02 04:35:23;;;;;;;1.77;0.60;;;14.20;99.90;;;;;;5082986;28;20036;-77
2021/08/02 04:37:49;;;;;;;4.38;0.80;;;14.10;99.90;;;;;;5083887;28;20036;-77
2021/08/02 04:40:16;;;;;;;1.73;0.50;;;14.10;99.90;;;;;;5083168;28;20056;-77
2021/08/02 04:42:42;;;;;;;4.10;0.60;;;14.20;99.90;;;;;;5082983;28;20502;-77
2021/08/02 04:45:09;;;;;;;1.88;0.50;;;14.20;99.90;;;;;;5084899;28;20040;-77
2021/08/02 04:47:37;;;;;;;5.05;0.47;;;14.20;99.90;;;;;;5083232;28;20129;-77
2021/08/02 04:50:04;;;;;;;2.78;0.50;;;14.20;99.90;;;;;;5084227;28;20032;-76
2021/08/02 04:52:30;;;;;;;5.07;0.50;;;14.20;99.90;;;;;;5088871;28;20570;-73
2021/08/02 04:54:57;;;;;;;2.40;0.30;;;14.20;99.90;;;;;;5084618;28;20046;-73
2021/08/02 04:57:23;;;;;;;2.20;0.50;;;14.20;99.90;;;;;;5101713;28;20044;-73
2021/08/02 04:59:49;;;;;;;1.70;0.60;;;14.20;99.90;;;;;;5085498;28;20117;-73
2021/08/02 05:02:16;;;;;;;1.85;0.88;;;14.20;99.90;;;;;;5084376;28;20604;-73
2021/08/02 05:04:42;;;;;;;4.82;0.80;;;14.20;99.90;;;;;;5085733;28;20039;-73
2021/08/02 05:07:09;;;;;;;3.28;0.98;;;14.20;99.90;;;;;;5086149;28;20032;-73
2021/08/02 05:09:35;;;;;;;3.03;0.50;;;14.20;99.90;;;;;;5073558;28;20043;-73
2021/08/02 05:12:02;;;;;;;1.58;0.43;;;14.20;99.90;;;;;;5085460;28;20044;-73
2021/08/02 05:14:30;;;;;;;2.50;0.50;;;14.20;99.90;;;;;;5103268;28;20817;-74
2021/08/02 05:16:56;;;;;;;1.80;0.60;;;14.20;99.90;;;;;;5051293;28;20040;-74
2021/08/02 05:19:23;;;;;;;1.10;0.60;;;14.20;99.90;;;;;;5085158;28;20036;-73
2021/08/02 05:21:49;;;;;;;1.77;0.47;;;14.20;99.90;;;;;;5102429;28;20043;-74
2021/08/02 05:24:16;;;;;;;3.00;0.47;;;14.20;99.90;;;;;;5084970;28;20039;-74
2021/08/02 05:26:43;;;;;;;3.33;0.70;;;14.20;99.90;;;;;;5068861;28;20039;-73
2021/08/02 05:29:10;;;;;;;2.60;0.52;;;14.20;99.90;;;;;;5086276;28;20115;-74
2021/08/02 05:31:36;;;;;;;2.63;0.60;;;14.20;99.90;;;;;;5101463;28;20426;-73
2021/08/02 05:34:02;;;;;;;2.08;0.50;;;14.20;99.90;;;;;;5084418;28;20578;-73
2021/08/02 05:36:29;;;;;;;3.78;0.60;;;14.30;99.90;;;;;;5084868;28;20054;-73
2021/08/02 05:38:55;;;;;;;3.58;0.88;;;14.30;99.90;;;;;;5068343;28;20509;-73
2021/08/02 05:41:22;;;;;;;1.20;0.40;;;14.30;99.90;;;;;;5049393;28;20051;-73
2021/08/02 05:43:48;;;;;;;4.38;0.60;;;14.40;99.90;;;;;;5085425;28;20043;-73
2021/08/02 05:46:15;;;;;;;3.92;0.60;;;14.40;99.90;;;;;;5070737;28;20609;-73
2021/08/02 05:48:43;;;;;;;4.97;0.60;;;14.40;99.90;;;;;;5104302;28;20047;-73
2021/08/02 05:51:10;;;;;;;2.50;0.50;;;14.50;99.90;;;;;;5083588;28;20919;-73
2021/08/02 05:53:36;;;;;;;2.45;0.50;;;14.40;99.90;;;;;;5085415;28;20040;-73
2021/08/02 05:56:03;;;;;;;2.25;0.40;;;14.50;99.90;;;;;;5103516;28;20035;-73
2021/08/02 05:58:29;;;;;;;3.65;0.43;;;14.60;99.90;;;;;;5103819;28;20043;-73
2021/08/02 06:00:55;;;;;;;2.88;0.50;;;14.70;99.90;;;;;;5082596;28;20047;-73
2021/08/02 06:03:22;;;;;;;4.25;0.60;;;14.80;99.90;;;;;;5085304;28;20043;-74
2021/08/02 06:05:48;;;;;;;1.50;0.45;;;14.90;99.90;;;;;;5099965;28;20039;-74
2021/08/02 06:08:15;;;;;;;1.95;0.50;;;15.10;99.90;;;;;;5103876;28;20047;-74
2021/08/02 06:10:41;;;;;;;2.53;0.55;;;15.10;99.90;;;;;;5066955;28;20302;-76
2021/08/02 06:13:08;;;;;;;2.08;0.47;;;15.20;99.90;;;;;;5054881;28;20035;-77
2021/08/02 06:15:34;;;;;;;2.60;0.50;;;15.20;99.90;;;;;;5071759;28;20044;-76
2021/08/02 06:18:01;;;;;;;3.40;0.57;;;15.30;99.90;;;;;;5088853;28;20141;-77
2021/08/02 06:20:28;;;;;;;2.58;0.50;;;15.30;99.90;;;;;;5070478;28;20039;-77
2021/08/02 06:22:54;;;;;;;3.60;0.45;;;15.40;99.90;;;;;;5089086;28;20058;-77
2021/08/02 06:25:20;;;;;;;2.67;0.52;;;15.40;99.90;;;;;;5106987;28;20038;-77
2021/08/02 06:27:47;;;;;;;2.85;0.50;;;15.40;99.90;;;;;;5107214;28;20035;-77
2021/08/02 06:30:13;;;;;;;2.70;0.50;;;15.40;99.90;;;;;;5088362;28;20044;-77
2021/08/02 06:32:40;;;;;;;4.60;0.50;;;15.40;99.90;;;;;;5105231;28;20039;-77
2021/08/02 06:35:06;;;;;;;1.70;0.45;;;15.40;99.90;;;;;;5087282;28;20031;-77
2021/08/02 06:37:33;;;;;;;2.50;0.47;;;15.50;99.90;;;;;;5088561;28;20036;-77
2021/08/02 06:39:59;;;;;;;3.72;0.63;;;15.70;99.90;;;;;;5106499;28;20039;-77
2021/08/02 06:42:25;;;;;;;2.70;0.45;;;16.20;99.90;;;;;;5069915;28;20058;-77
2021/08/02 06:44:52;;;;;;;2.42;0.50;;;16.80;99.90;;;;;;5088243;28;20031;-77
2021/08/02 06:47:19;;;;;;;3.88;0.70;;;17.20;99.90;;;;;;5070578;28;20028;-77
2021/08/02 06:49:46;;;;;;;3.35;0.50;;;17.50;99.90;;;;;;5088689;28;20032;-77
2021/08/02 06:52:12;;;;;;;3.53;0.50;;;17.80;99.90;;;;;;5105549;28;20051;-76
2021/08/02 06:54:38;;;;;;;3.08;0.52;;;18.00;99.90;;;;;;5071050;28;20031;-77
2021/08/02 06:57:05;;;;;;;2.47;0.30;;;18.30;99.90;;;;;;5069892;28;20024;-77
2021/08/02 06:59:31;;;;;;;5.38;0.40;;;18.50;99.90;;;;;;5071152;28;20486;-77
2021/08/02 07:01:57;;;;;;;3.15;0.40;;;18.70;99.90;;;;;;5085607;28;20149;-77
2021/08/02 07:04:24;;;;;;;2.70;0.40;;;18.90;99.90;;;;;;5105952;28;20520;-76
2021/08/02 07:06:50;;;;;;;2.05;0.40;;;19.00;99.90;;;;;;5107071;28;20028;-76
2021/08/02 07:09:17;;;;;;;6.20;0.50;;;19.10;99.90;;;;;;5106698;28;20027;-74
2021/08/02 07:11:43;;;;;;;2.53;0.40;;;19.10;99.90;;;;;;5087908;28;20042;-75
2021/08/02 07:14:10;;;;;;;1.55;0.30;;;19.10;99.90;;;;;;5087898;28;20039;-74
2021/08/02 07:16:36;;;;;;;1.27;0.60;;;19.10;99.90;;;;;;5087624;28;20023;-74
2021/08/02 07:19:02;;;;;;;3.85;0.60;;;19.10;99.90;;;;;;5087016;28;20040;-74
2021/08/02 07:21:29;;;;;;;2.38;0.40;;;19.20;99.90;;;;;;5104417;28;20036;-74
2021/08/02 07:23:55;;;;;;;2.75;0.40;;;19.30;99.90;;;;;;5106842;28;20494;-74
2021/08/02 07:26:24;;;;;;;2.63;0.40;;;19.30;99.90;;;;;;5087499;28;20035;-74
2021/08/02 07:28:50;;;;;;;4.25;0.30;;;19.30;99.90;;;;;;5106392;28;20050;-74
2021/08/02 07:31:17;;;;;;;2.35;0.70;;;19.40;99.90;;;;;;5086214;28;20036;-74
2021/08/02 07:33:43;;;;;;;3.75;0.52;;;19.50;99.90;;;;;;5106382;28;20027;-75
2021/08/02 07:36:09;;;;;;;5.78;0.40;;;19.50;99.70;;;;;;5087732;28;20046;-76
2021/08/02 07:38:36;;;;;;;4.05;0.32;;;19.30;99.70;;;;;;5106322;28;20066;-78
2021/08/02 07:41:03;;;;;;;2.78;0.40;;;19.20;99.50;;;;;;5086528;28;20035;-75
2021/08/02 07:43:29;;;;;;;1.65;0.35;;;19.20;99.90;;;;;;5087746;28;20036;-75
2021/08/02 07:45:56;;;;;;;4.20;0.45;;;19.30;99.70;;;;;;5105402;28;20023;-75
2021/08/02 07:48:23;;;;;;;2.08;0.50;;;19.50;99.50;;;;;;5108397;27;20415;-75
2021/08/02 07:50:49;;;;;;;2.97;0.40;;;19.70;99.10;;;;;;5104038;28;20143;-74
2021/08/02 07:53:15;;;;;;;2.13;0.70;;;19.90;98.20;;;;;;5087556;28;20052;-75
2021/08/02 07:55:42;;;;;;;2.63;0.30;;;20.10;98.00;;;;;;5087224;28;20040;-75
2021/08/02 07:58:09;;;;;;;3.35;0.40;;;20.40;97.90;;;;;;5108802;27;20032;-74
2021/08/02 08:00:36;;;;;;;1.70;0.30;;;20.60;97.10;;;;;;5104321;28;20056;-75
2021/08/02 08:03:03;;;;;;;2.53;0.43;;;20.70;96.80;;;;;;5087576;28;20038;-75
2021/08/02 08:05:29;;;;;;;3.38;0.40;;;20.90;96.40;;;;;;5086791;28;20039;-75
2021/08/02 08:07:56;;;;;;;1.30;0.30;;;20.90;95.60;;;;;;5070442;28;20051;-74
2021/08/02 08:10:25;;;;;;;2.63;0.40;;;20.80;95.50;;;;;;5085911;28;20410;-75
2021/08/02 08:12:53;;;;;;;2.97;0.40;;;20.60;95.40;;;;;;5084606;28;20020;-74
2021/08/02 08:15:21;;;;;;;2.30;0.50;;;20.40;95.40;;;;;;5105236;28;20027;-75
2021/08/02 08:17:47;;;;;;;3.13;0.50;;;20.40;95.90;;;;;;5087315;28;20028;-75
2021/08/02 08:20:16;;;;;;;3.20;0.32;;;20.40;95.90;;;;;;5087409;28;20027;-75
2021/08/02 08:22:43;;;;;;;1.90;0.43;;;20.30;95.70;;;;;;5085706;28;20028;-75
2021/08/02 08:25:10;;;;;;;2.63;0.50;;;20.30;95.90;;;;;;5105157;28;20040;-75
2021/08/02 08:27:37;;;;;;;1.75;0.30;;;20.30;96.20;;;;;;5105301;28;20035;-75
2021/08/02 08:30:05;;;;;;;1.70;0.30;;;20.30;96.30;;;;;;5087410;28;20035;-75
2021/08/02 08:32:32;;;;;;;3.65;0.50;;;20.20;96.20;;;;;;5084814;28;20044;-75
2021/08/02 08:34:59;;;;;;;5.13;0.70;;;20.00;96.10;;;;;;5086683;28;20035;-75
2021/08/02 08:37:25;;;;;;;2.38;0.55;;;20.10;96.00;;;;;;5071372;28;20044;-75
2021/08/02 08:39:51;;;;;;;3.60;0.55;;;20.40;96.10;;;;;;5086727;28;20039;-75
2021/08/02 08:42:18;;;;;;;3.13;0.35;;;20.90;95.60;;;;;;5066913;28;20047;-75
2021/08/02 08:44:44;;;;;;;3.67;0.45;;;21.20;94.30;;;;;;5104659;28;20035;-74
2021/08/02 08:47:12;;;;;;;3.40;0.50;;;21.30;93.90;;;;;;5035820;28;20070;-75
2021/08/02 08:49:39;;;;;;;2.92;0.40;;;21.20;93.70;;;;;;5102645;28;20497;-75
2021/08/02 08:52:07;;;;;;;3.10;0.40;;;21.20;93.80;;;;;;5102648;28;20035;-75
2021/08/02 08:54:35;;;;;;;2.28;0.43;;;21.10;93.70;;;;;;5104453;28;20039;-74
2021/08/02 08:57:03;;;;;;;2.97;0.50;;;21.10;93.80;;;;;;5104893;28;20035;-75
2021/08/02 08:59:30;;;;;;;3.08;0.60;;;21.00;93.90;;;;;;5086498;28;20040;-75
2021/08/02 09:02:04;;;;;;;5.18;0.60;;;20.90;93.90;;;;;;5053469;28;20047;-75
2021/08/02 09:04:31;;;;;;;2.67;0.50;;;20.80;93.90;;;;;;5104270;28;20046;-75
2021/08/02 09:06:59;;;;;;;5.88;0.50;;;20.60;94.00;;;;;;5052345;28;20402;-75
2021/08/02 09:09:31;;;;;;;1.73;0.40;;;20.50;93.80;;;;;;5086348;28;20035;-75
2021/08/02 09:12:08;;;;;;;1.08;0.35;;;20.50;93.30;;;;;;5087306;28;20032;-75
2021/08/02 09:14:35;;;;;;;5.30;0.30;;;20.40;93.40;;;;;;5085569;28;20479;-75
2021/08/02 09:17:01;;;;;;;1.48;0.30;;;20.40;93.40;;;;;;5086282;28;20039;-75
2021/08/02 09:19:39;;;;;;;1.60;0.40;;;20.40;93.40;;;;;;5068281;28;20053;-75
2021/08/02 09:22:05;;;;;;;1.90;0.43;;;20.50;93.60;;;;;;5084433;28;20019;-78
2021/08/02 09:24:34;;;;;;;2.30;0.30;;;20.50;93.60;;;;;;5068469;28;20265;-77
2021/08/02 09:27:00;;;;;;;1.75;0.30;;;20.60;93.50;;;;;;5068859;28;20046;-77
2021/08/02 09:29:32;;;;;;;5.03;0.60;;;20.70;93.00;;;;;;5085080;28;20051;-77
2021/08/02 09:32:02;;;;;;;5.82;0.80;;;20.80;92.70;;;;;;5066333;28;20062;-74
2021/08/02 09:34:29;;;;;;;4.60;0.90;;;20.80;92.70;;;;;;5103728;28;20031;-74
2021/08/02 09:36:57;;;;;;;2.50;0.60;;;21.00;92.60;;;;;;5104194;28;20390;-74
2021/08/02 09:39:32;;;;;;;2.83;0.40;;;21.20;92.30;;;;;;5086403;28;20129;-74
2021/08/02 09:42:08;;;;;;;2.30;0.45;;;21.30;91.80;;;;;;5081638;28;20039;-74
2021/08/02 09:44:34;;;;;;;2.58;0.40;;;21.40;91.30;;;;;;5085359;28;20044;-74
2021/08/02 09:47:06;;;;;;;1.73;0.30;;;21.40;91.20;;;;;;5104206;28;20046;-74
2021/08/02 09:49:47;;;;;;;2.60;0.40;;;21.50;91.30;;;;;;5094676;28;20043;-75
2021/08/02 09:52:15;;;;;;;2.13;0.40;;;21.50;91.00;;;;;;5107608;28;20040;-74
2021/08/02 09:54:42;;;;;;;1.80;0.40;;;21.50;91.20;;;;;;5091430;28;20285;-75
2021/08/02 09:57:08;;;;;;;2.92;0.50;;;21.50;91.30;;;;;;5074087;28;20028;-75
2021/08/02 09:59:42;;;;;;;2.67;0.40;;;21.60;91.40;;;;;;5110526;27;20031;-74
2021/08/02 10:02:10;;;;;;;2.25;0.30;;;21.50;90.60;;;;;;5073679;28;20418;-75
2021/08/02 10:04:37;;;;;;;1.38;0.30;;;21.50;90.80;;;;;;5110013;28;20036;-75
2021/08/02 10:07:10;;;;;;;2.42;0.43;;;21.40;90.80;;;;;;5110862;28;20028;-74
2021/08/02 10:09:37;;;;;;;4.90;0.40;;;21.20;90.90;;;;;;5091412;28;20047;-75
2021/08/02 10:12:04;;;;;;;2.30;0.40;;;21.10;91.20;;;;;;5072918;28;20051;-78
2021/08/02 10:14:32;;;;;;;2.30;0.35;;;21.00;91.40;;;;;;5074559;28;20044;-78
2021/08/02 10:17:03;;;;;;;1.20;0.30;;;20.90;91.60;;;;;;5076319;28;20043;-78
2021/08/02 10:19:36;;;;;;;4.97;0.50;;;20.90;91.70;;;;;;5093107;28;20479;-77
2021/08/02 10:22:04;;;;;;;4.57;0.63;;;20.80;91.50;;;;;;5105966;28;20481;-78
2021/08/02 10:24:30;;;;;;;2.95;0.40;;;20.60;91.80;;;;;;5074816;28;20040;-78
2021/08/02 10:26:59;;;;;;;1.55;0.30;;;20.50;92.00;;;;;;5092947;28;20035;-78
2021/08/02 10:29:46;;;;;;;1.83;0.40;;;20.50;92.00;;;;;;5091619;28;20329;-75
2021/08/02 10:32:27;;;;;;;2.63;0.45;;;20.40;92.20;;;;;;5107870;28;20061;-74
2021/08/02 10:34:56;;;;;;;1.50;0.30;;;20.40;92.00;;;;;;5109118;27;20334;-74
2021/08/02 10:37:58;;;;;;;4.85;0.50;;;20.60;92.10;;;;;;5091108;28;20044;-75
2021/08/02 10:40:24;;;;;;;3.08;0.60;;;20.80;91.70;;;;;;5107695;28;20024;-74
2021/08/02 10:42:51;;;;;;;4.10;0.70;;;21.10;91.40;;;;;;5110314;28;20039;-75
2021/08/02 10:45:31;;;;;;;2.15;0.50;;;21.40;91.20;;;;;;5109549;28;20027;-74
2021/08/02 10:47:58;;;;;;;1.70;0.50;;;21.70;90.70;;;;;;5109062;27;20040;-74
2021/08/02 10:50:31;;;;;;;2.35;0.47;;;21.90;89.90;;;;;;5108207;28;20035;-74
2021/08/02 10:52:57;;;;;;;0.82;0.30;;;22.20;89.40;;;;;;5106694;28;20043;-76
2021/08/02 10:55:29;;;;;;;1.92;0.50;;;22.40;88.60;;;;;;5088690;28;20048;-76
2021/08/02 10:58:00;;;;;;;2.92;0.50;;;22.60;88.30;;;;;;5084467;28;20040;-74
2021/08/02 11:00:28;;;;;;;6.18;0.50;;;22.80;85.90;;;;;;5067855;28;20043;-75
2021/08/02 11:02:56;;;;;;;3.22;0.40;;;22.90;85.30;;;;;;5082674;28;20451;-76
2021/08/02 11:05:28;;;;;;;3.03;0.55;;;23.20;85.30;;;;;;5085658;28;20394;-75
2021/08/02 11:08:04;;;;;;;2.25;0.40;;;23.30;83.90;;;;;;5069313;28;20048;-75
2021/08/02 11:10:32;;;;;;;2.63;0.50;;;23.30;83.00;;;;;;5066185;28;20040;-76
2021/08/02 11:12:59;;;;;;;4.10;0.50;;;23.40;83.30;;;;;;5102773;28;20039;-78
2021/08/02 11:15:25;;;;;;;2.60;0.52;;;23.50;82.80;;;;;;5085360;28;20051;-77
2021/08/02 11:17:53;;;;;;;1.70;0.68;;;23.60;82.10;;;;;;5084686;28;20493;-77
2021/08/02 11:20:19;;;;;;;4.80;0.70;;;23.70;81.50;;;;;;5061213;28;20039;-78
2021/08/02 11:22:49;;;;;;;1.35;0.40;;;23.60;81.00;;;;;;5083688;28;20036;-79
2021/08/02 11:25:23;;;;;;;3.42;0.50;;;23.50;80.50;;;;;;5086018;28;20036;-78
2021/08/02 11:27:51;;;;;;;2.03;0.40;;;23.50;80.30;;;;;;5070031;28;20031;-81
2021/08/02 11:30:17;;;;;;;2.38;0.40;;;23.40;79.70;;;;;;5104517;28;20476;-78
2021/08/02 11:32:44;;;;;;;3.63;0.60;;;23.40;78.90;;;;;;5105562;28;20032;-77
2021/08/02 11:35:11;;;;;;;2.30;0.90;;;23.40;78.30;;;;;;5070600;28;20035;-77
2021/08/02 11:37:37;;;;;;;3.58;1.58;;;23.60;77.70;;;;;;5071105;28;20032;-76
2021/08/02 11:40:12;;;;;;;3.75;0.60;;;24.10;77.80;;;;;;5105127;28;20024;-76
2021/08/02 11:42:42;;;;;;;1.13;0.50;;;24.40;75.60;;;;;;5104532;28;20089;-78
2021/08/02 11:45:09;;;;;;;1.52;0.40;;;24.70;73.70;;;;;;5071182;28;20027;-78
2021/08/02 11:47:41;;;;;;;1.73;0.40;;;24.80;71.60;;;;;;5087682;28;20035;-79
2021/08/02 11:50:08;;;;;;;;;;;24.80;71.00;;;;;;5086120;28;20035;-77
2021/08/02 11:52:34;;;;;;;2.13;0.50;;;24.80;70.70;;;;;;5061793;28;19927;-78
2021/08/02 11:55:12;;;;;;;1.92;0.50;;;24.70;68.90;;;;;;5050591;28;20044;-77
2021/08/02 11:57:40;;;;;;;1.33;0.30;;;24.60;68.00;;;;;;5064419;28;20475;-78
2021/08/02 12:00:11;;;;;;;2.13;0.40;;;24.40;68.50;;;;;;5047640;28;20044;-78
2021/08/02 12:02:44;;;;;;;2.22;0.38;;;24.30;69.70;;;;;;5063375;28;20119;-78
2021/08/02 12:05:28;;;;;;;4.55;0.40;;;24.40;68.30;;;;;;5063173;28;20036;-78
2021/08/02 12:08:06;;;;;;;1.00;0.30;;;24.60;68.50;;;;;;5046848;28;20052;-78
2021/08/02 12:10:33;;;;;;;1.73;0.30;;;25.00;68.30;;;;;;5061457;28;20036;-78
2021/08/02 12:13:01;;;;;;;2.72;0.50;;;25.30;67.70;;;;;;5064934;28;20372;-79
2021/08/02 12:15:29;;;;;;;1.90;0.40;;;25.40;66.20;;;;;;5064794;28;20031;-78
2021/08/02 12:17:57;;;;;;;1.85;0.38;;;25.60;66.80;;;;;;5062481;28;20052;-78
2021/08/02 12:20:30;;;;;;;2.97;0.50;;;25.60;65.70;;;;;;5061497;28;20037;-78
2021/08/02 12:22:56;;;;;;;1.90;0.45;;;25.60;65.80;;;;;;5063537;28;20044;-78
2021/08/02 12:25:40;;;;;;;2.20;0.40;;;25.60;65.80;;;;;;5065008;28;20040;-78
2021/08/02 12:28:07;;;;;;;2.83;0.40;;;25.80;65.80;;;;;;5070247;28;20036;-78
2021/08/02 12:30:37;;;;;;;1.83;0.47;;;25.90;65.40;;;;;;5062679;28;20045;-77
2021/08/02 12:33:04;;;;;;;2.22;0.50;;;26.10;64.00;;;;;;5063416;28;20028;-77
2021/08/02 12:35:31;;;;;;;1.20;0.30;;;26.40;64.00;;;;;;5064134;28;20037;-78
2021/08/02 12:38:00;;;;;;;1.02;0.30;;;26.60;63.70;;;;;;5065078;28;20279;-78
2021/08/02 12:40:27;;;;;;;1.40;0.40;;;26.80;63.30;;;;;;5061530;28;20036;-75
2021/08/02 12:42:54;;;;;;;1.35;0.40;;;26.80;61.30;;;;;;5077546;28;20029;-75
2021/08/02 12:45:20;;;;;;;1.30;0.47;;;26.90;61.40;;;;;;5063580;28;20032;-75
2021/08/02 12:47:48;;;;;;;1.77;0.77;;;26.80;60.50;;;;;;5062696;28;20029;-74
2021/08/02 12:50:16;;;;;;;2.15;0.40;;;26.40;61.40;;;;;;5078390;28;20035;-75
2021/08/02 12:52:44;;;;;;;2.60;0.40;;;25.80;62.00;;;;;;5078237;28;20508;-78
2021/08/02 12:55:16;;;;;;;3.05;0.43;;;25.20;62.80;;;;;;5104280;28;20039;-75
2021/08/02 12:57:43;;;;;;;4.57;0.60;;;24.70;63.50;;;;;;5070059;28;20074;-78
2021/08/02 13:00:14;;;;;;;2.20;0.40;;;24.30;63.40;;;;;;5104874;28;20028;-78